Time;durP1;ratioP1;P1;durP2;ratioP2;P2;SDS_P1;SDS_P2;PMS_P1;PMS_P2;Temp;Humidity;BMP_temperature;BMP_pressure;BME280_temperature;BME280_humidity;BME280_pressure;Samples;Min_cycle;Max_cycle;Signal;HPM_P1;HPM_P2
2021/01/20 00:01:55;;;;;;;7.18;4.18;;;;;;;;;;5093943;28;20412;-50
2021/01/20 00:04:21;;;;;;;5.10;4.60;;;;;;;;;;5092923;28;20170;-50
2021/01/20 00:06:48;;;;;;;6.30;4.23;;;;;;;;;;5093456;28;20494;-50
2021/01/20 00:09:13;;;;;;;4.03;3.63;;;;;;;;;;5093462;28;20423;-53
2021/01/20 00:11:39;;;;;;;5.90;4.27;;;;;;;;;;5093718;28;20165;-50
2021/01/20 00:14:05;;;;;;;6.73;4.30;;;;;;;;;;5091872;28;20426;-50
2021/01/20 00:16:31;;;;;;;11.50;4.43;;;;;;;;;;5075235;28;20465;-51
2021/01/20 00:18:57;;;;;;;5.57;4.20;;;;;;;;;;5093579;28;20412;-50
2021/01/20 00:21:24;;;;;;;8.23;4.05;;;;;;;;;;5093792;28;20401;-50
2021/01/20 00:23:50;;;;;;;5.20;3.95;;;;;;;;;;5092693;28;20173;-50
2021/01/20 00:26:16;;;;;;;7.07;4.47;;;;;;;;;;5092965;28;20260;-50
2021/01/20 00:28:42;;;;;;;6.05;2.90;;;;;;;;;;5093305;28;20201;-50
2021/01/20 00:31:08;;;;;;;4.00;3.60;;;;;;;;;;5093188;28;20169;-50
2021/01/20 00:33:34;;;;;;;3.50;3.10;;;;;;;;;;5093250;28;20880;-50
2021/01/20 00:36:00;;;;;;;4.47;3.87;;;;;;;;;;5092761;28;20395;-50
2021/01/20 00:38:26;;;;;;;5.53;3.90;;;;;;;;;;5093135;28;20426;-49
2021/01/20 00:40:52;;;;;;;3.88;3.53;;;;;;;;;;5092908;28;20245;-49
2021/01/20 00:43:18;;;;;;;5.77;3.60;;;;;;;;;;5093079;28;20202;-50
2021/01/20 00:45:44;;;;;;;3.40;3.00;;;;;;;;;;5090962;28;20415;-50
2021/01/20 00:48:10;;;;;;;7.00;3.40;;;;;;;;;;5092595;28;20999;-50
2021/01/20 00:50:36;;;;;;;7.57;4.05;;;;;;;;;;5092854;28;20437;-50
2021/01/20 00:53:02;;;;;;;5.78;3.88;;;;;;;;;;5092499;28;20172;-50
2021/01/20 00:55:28;;;;;;;5.88;3.70;;;;;;;;;;5092486;28;20198;-50
2021/01/20 00:57:54;;;;;;;5.40;3.20;;;;;;;;;;5092425;28;20230;-50
2021/01/20 01:00:21;;;;;;;8.43;3.47;;;;;;;;;;5092666;28;20400;-49
2021/01/20 01:02:48;;;;;;;4.78;3.60;;;;;;;;;;5092371;28;20404;-50
2021/01/20 01:05:14;;;;;;;4.90;3.30;;;;;;;;;;5092324;28;20552;-50
2021/01/20 01:07:40;;;;;;;7.47;3.53;;;;;;;;;;5092349;28;20169;-51
2021/01/20 01:10:06;;;;;;;7.17;3.20;;;;;;;;;;5092193;28;20906;-52
2021/01/20 01:12:32;;;;;;;4.05;3.42;;;;;;;;;;5092384;28;20739;-52
2021/01/20 01:14:58;;;;;;;6.20;3.20;;;;;;;;;;5088754;28;20206;-53
2021/01/20 01:17:24;;;;;;;4.00;3.13;;;;;;;;;;5091772;28;20444;-53
2021/01/20 01:19:50;;;;;;;5.47;3.53;;;;;;;;;;5092129;28;20782;-50
2021/01/20 01:22:16;;;;;;;7.17;3.50;;;;;;;;;;5092157;28;20392;-50
2021/01/20 01:24:42;;;;;;;3.23;2.93;;;;;;;;;;5092023;28;20416;-50
2021/01/20 01:27:08;;;;;;;6.30;3.08;;;;;;;;;;5091863;28;20408;-50
2021/01/20 01:29:34;;;;;;;7.60;3.80;;;;;;;;;;5091949;28;20185;-50
2021/01/20 01:32:00;;;;;;;5.05;3.35;;;;;;;;;;5091937;28;20400;-50
2021/01/20 01:34:26;;;;;;;3.83;3.40;;;;;;;;;;5091954;28;20170;-50
2021/01/20 01:36:52;;;;;;;4.13;3.72;;;;;;;;;;5091312;28;20443;-51
2021/01/20 01:39:18;;;;;;;5.50;3.43;;;;;;;;;;5091694;28;20191;-53
2021/01/20 01:41:44;;;;;;;7.00;3.30;;;;;;;;;;5091687;28;20396;-52
2021/01/20 01:44:10;;;;;;;3.83;3.50;;;;;;;;;;5090706;28;20490;-53
2021/01/20 01:46:36;;;;;;;7.85;3.78;;;;;;;;;;5091329;28;20465;-53
2021/01/20 01:49:02;;;;;;;4.75;4.15;;;;;;;;;;5091517;28;20234;-52
2021/01/20 01:51:28;;;;;;;4.00;3.60;;;;;;;;;;5091451;28;20215;-53
2021/01/20 01:53:55;;;;;;;5.60;4.30;;;;;;;;;;5091543;28;20162;-53
2021/01/20 01:56:24;;;;;;;7.25;4.25;;;;;;;;;;5091198;28;20443;-50
2021/01/20 01:58:53;;;;;;;7.57;4.90;;;;;;;;;;5091340;28;20277;-53
2021/01/20 02:01:19;;;;;;;5.60;3.95;;;;;;;;;;5091124;28;20169;-50
2021/01/20 02:03:48;;;;;;;6.10;3.90;;;;;;;;;;5088761;28;20176;-50
2021/01/20 02:06:14;;;;;;;8.18;4.05;;;;;;;;;;5090799;28;20193;-50
2021/01/20 02:08:40;;;;;;;6.88;4.30;;;;;;;;;;5091047;28;20762;-52
2021/01/20 02:11:23;;;;;;;4.80;4.32;;;;;;;;;;5091524;28;20171;-49
2021/01/20 02:13:59;;;;;;;5.90;4.00;;;;;;;;;;5089817;28;20252;-50
2021/01/20 02:16:27;;;;;;;5.80;4.32;;;;;;;;;;5070755;28;20219;-50
2021/01/20 02:18:53;;;;;;;4.18;3.78;;;;;;;;;;5070705;28;20256;-53
2021/01/20 02:21:51;;;;;;;5.38;4.20;;;;;;;;;;5070955;28;20245;-50
2021/01/20 02:24:20;;;;;;;6.32;3.85;;;;;;;;;;5026554;28;20263;-50
2021/01/20 02:26:48;;;;;;;9.65;3.92;;;;;;;;;;5070333;28;20174;-50
2021/01/20 02:29:33;;;;;;;4.93;3.70;;;;;;;;;;5070720;28;20213;-53
2021/01/20 02:32:00;;;;;;;5.93;3.83;;;;;;;;;;5070878;28;20181;-51
2021/01/20 02:34:27;;;;;;;5.95;3.95;;;;;;;;;;5070913;28;20201;-50
2021/01/20 02:36:54;;;;;;;6.45;3.50;;;;;;;;;;5070244;28;20186;-53
2021/01/20 02:39:20;;;;;;;3.88;3.20;;;;;;;;;;5070671;28;20235;-50
2021/01/20 02:41:46;;;;;;;5.45;3.75;;;;;;;;;;5070603;28;20254;-50
2021/01/20 02:44:12;;;;;;;4.13;2.90;;;;;;;;;;5070845;28;20201;-51
2021/01/20 02:46:39;;;;;;;4.90;3.20;;;;;;;;;;5090047;28;20211;-50
2021/01/20 02:49:05;;;;;;;8.73;3.95;;;;;;;;;;5090713;28;20440;-50
2021/01/20 02:51:39;;;;;;;4.35;3.88;;;;;;;;;;5090646;28;20253;-50
2021/01/20 02:54:06;;;;;;;3.38;3.17;;;;;;;;;;5090723;28;20242;-51
2021/01/20 02:56:33;;;;;;;5.13;4.00;;;;;;;;;;5090313;28;20191;-51
2021/01/20 02:59:01;;;;;;;4.80;3.37;;;;;;;;;;5072809;28;20440;-50
2021/01/20 03:01:29;;;;;;;3.30;3.00;;;;;;;;;;5090745;28;20485;-50
2021/01/20 03:03:57;;;;;;;4.50;3.50;;;;;;;;;;5090648;28;20400;-50
2021/01/20 03:06:23;;;;;;;3.90;3.38;;;;;;;;;;5089546;28;20270;-50
2021/01/20 03:08:50;;;;;;;3.50;3.20;;;;;;;;;;5090359;28;20194;-50
2021/01/20 03:11:17;;;;;;;3.40;3.13;;;;;;;;;;5090634;28;20401;-53
2021/01/20 03:13:44;;;;;;;3.50;3.20;;;;;;;;;;5090564;28;20183;-50
2021/01/20 03:16:10;;;;;;;5.55;4.10;;;;;;;;;;5089022;28;20175;-50
2021/01/20 03:18:36;;;;;;;5.50;3.50;;;;;;;;;;5090394;28;20188;-50
2021/01/20 03:21:02;;;;;;;4.20;3.50;;;;;;;;;;5090522;28;20392;-50
2021/01/20 03:23:28;;;;;;;3.33;3.05;;;;;;;;;;5090512;28;20395;-49
2021/01/20 03:25:56;;;;;;;5.43;3.40;;;;;;;;;;5090087;28;20216;-50
2021/01/20 03:28:22;;;;;;;4.20;3.37;;;;;;;;;;5090461;28;20419;-49
2021/01/20 03:30:48;;;;;;;5.87;3.50;;;;;;;;;;5090299;28;20470;-51
2021/01/20 03:33:14;;;;;;;3.47;3.17;;;;;;;;;;5090439;28;20896;-52
2021/01/20 03:35:40;;;;;;;3.90;3.00;;;;;;;;;;5089849;28;20395;-50
2021/01/20 03:38:08;;;;;;;8.00;4.13;;;;;;;;;;5090278;28;20455;-50
2021/01/20 03:40:34;;;;;;;6.33;3.10;;;;;;;;;;5094152;28;20555;-50
2021/01/20 03:43:00;;;;;;;3.73;3.43;;;;;;;;;;5094086;28;20405;-50
2021/01/20 03:45:26;;;;;;;3.63;3.33;;;;;;;;;;5092809;28;20417;-50
2021/01/20 03:47:52;;;;;;;5.53;4.30;;;;;;;;;;5093921;28;20432;-52
2021/01/20 03:50:18;;;;;;;5.50;3.43;;;;;;;;;;5093947;28;20400;-52
2021/01/20 03:52:44;;;;;;;4.57;3.40;;;;;;;;;;5093635;28;20458;-52
2021/01/20 03:55:10;;;;;;;3.83;3.53;;;;;;;;;;5093896;28;20786;-50
2021/01/20 03:57:36;;;;;;;6.23;3.43;;;;;;;;;;5093374;28;20464;-49
2021/01/20 04:00:02;;;;;;;7.30;3.37;;;;;;;;;;5093923;28;20458;-49
2021/01/20 04:02:28;;;;;;;4.97;3.30;;;;;;;;;;5093691;28;20400;-50
2021/01/20 04:04:57;;;;;;;2.80;2.70;;;;;;;;;;5093639;28;20365;-50
2021/01/20 04:07:23;;;;;;;3.88;3.38;;;;;;;;;;5093208;28;20824;-50
2021/01/20 04:09:49;;;;;;;3.40;3.10;;;;;;;;;;5093679;28;20223;-49
2021/01/20 04:12:15;;;;;;;3.87;3.43;;;;;;;;;;5093609;28;20840;-50
2021/01/20 04:14:41;;;;;;;3.40;3.10;;;;;;;;;;5091998;28;20783;-52
2021/01/20 04:17:07;;;;;;;5.10;3.10;;;;;;;;;;5093163;28;20455;-53
2021/01/20 04:19:33;;;;;;;3.97;3.53;;;;;;;;;;5093118;28;20460;-49
2021/01/20 04:21:59;;;;;;;6.45;3.17;;;;;;;;;;5093590;28;20399;-52
2021/01/20 04:24:25;;;;;;;3.67;2.60;;;;;;;;;;5093280;28;20189;-53
2021/01/20 04:26:51;;;;;;;4.17;3.10;;;;;;;;;;5093112;28;20400;-49
2021/01/20 04:29:17;;;;;;;3.77;3.40;;;;;;;;;;5093062;28;20427;-49
2021/01/20 04:31:43;;;;;;;3.70;3.37;;;;;;;;;;5093303;28;20411;-49
2021/01/20 04:34:10;;;;;;;3.40;3.10;;;;;;;;;;5092856;28;20400;-53
2021/01/20 04:36:35;;;;;;;4.65;3.08;;;;;;;;;;5092807;28;20207;-50
2021/01/20 04:39:02;;;;;;;4.00;3.13;;;;;;;;;;5093060;28;20186;-49
2021/01/20 04:41:28;;;;;;;5.63;3.55;;;;;;;;;;5092851;28;20451;-49
2021/01/20 04:43:54;;;;;;;4.43;3.38;;;;;;;;;;5091297;28;20181;-49
2021/01/20 04:46:20;;;;;;;5.57;3.63;;;;;;;;;;5092653;28;20175;-54
2021/01/20 04:48:48;;;;;;;3.10;2.63;;;;;;;;;;5092721;28;20212;-54
2021/01/20 04:51:15;;;;;;;4.00;3.60;;;;;;;;;;5092705;28;20914;-52
2021/01/20 04:53:42;;;;;;;3.43;3.03;;;;;;;;;;5093025;28;20397;-49
2021/01/20 04:56:11;;;;;;;4.38;3.00;;;;;;;;;;5092465;28;20399;-50
2021/01/20 04:58:37;;;;;;;4.50;3.60;;;;;;;;;;5092926;28;20191;-49
2021/01/20 05:01:04;;;;;;;3.40;3.10;;;;;;;;;;5092898;28;20528;-50
2021/01/20 05:03:30;;;;;;;5.45;3.30;;;;;;;;;;5092641;28;20396;-50
2021/01/20 05:05:56;;;;;;;3.53;3.27;;;;;;;;;;5092941;28;20162;-50
2021/01/20 05:08:22;;;;;;;3.30;3.00;;;;;;;;;;5092650;28;20428;-50
2021/01/20 05:10:49;;;;;;;4.25;3.72;;;;;;;;;;5092798;28;20885;-49
2021/01/20 05:13:28;;;;;;;3.70;3.40;;;;;;;;;;5092436;28;20853;-50
2021/01/20 05:15:54;;;;;;;3.53;3.23;;;;;;;;;;5090407;28;20429;-50
2021/01/20 05:18:20;;;;;;;3.53;3.13;;;;;;;;;;5092033;28;20570;-49
2021/01/20 05:20:46;;;;;;;3.40;3.10;;;;;;;;;;5092342;28;20756;-49
2021/01/20 05:23:13;;;;;;;3.83;3.07;;;;;;;;;;5091543;28;20178;-49
2021/01/20 05:25:40;;;;;;;4.07;3.27;;;;;;;;;;5091871;28;20418;-49
2021/01/20 05:28:16;;;;;;;7.50;3.93;;;;;;;;;;5092044;28;20425;-50
2021/01/20 05:33:46;;;;;;;3.60;3.30;;;;;;;;;;5091547;28;20177;-49
2021/01/20 05:36:13;;;;;;;4.32;3.40;;;;;;;;;;5091436;28;20194;-52
2021/01/20 05:38:40;;;;;;;3.15;2.90;;;;;;;;;;5091882;28;20183;-50
2021/01/20 05:41:16;;;;;;;3.80;3.50;;;;;;;;;;5091652;28;20182;-52
2021/01/20 05:43:42;;;;;;;5.50;3.13;;;;;;;;;;5091760;28;20389;-53
2021/01/20 05:46:09;;;;;;;3.73;2.87;;;;;;;;;;5090179;28;20424;-51
2021/01/20 05:48:45;;;;;;;4.80;3.03;;;;;;;;;;5091574;28;20502;-52
2021/01/20 05:51:10;;;;;;;3.33;3.10;;;;;;;;;;5091587;28;20393;-49
2021/01/20 05:53:47;;;;;;;4.23;3.50;;;;;;;;;;5090774;28;20260;-49
2021/01/20 05:56:15;;;;;;;5.28;4.00;;;;;;;;;;5091260;28;20908;-49
2021/01/20 05:58:41;;;;;;;4.10;3.47;;;;;;;;;;5091895;28;20193;-51
2021/01/20 06:01:08;;;;;;;4.00;3.10;;;;;;;;;;5089772;28;20166;-51
2021/01/20 06:03:34;;;;;;;6.50;4.30;;;;;;;;;;5091440;28;20483;-51
2021/01/20 06:06:02;;;;;;;3.38;3.08;;;;;;;;;;5091256;28;20174;-52
2021/01/20 06:08:31;;;;;;;2.97;2.77;;;;;;;;;;5091193;28;20233;-52
2021/01/20 06:10:57;;;;;;;3.73;3.43;;;;;;;;;;5091341;28;20395;-51
2021/01/20 06:13:23;;;;;;;6.10;3.53;;;;;;;;;;5091182;28;20478;-51
2021/01/20 06:15:50;;;;;;;3.90;3.10;;;;;;;;;;5090982;28;20425;-51
2021/01/20 06:18:17;;;;;;;4.13;3.00;;;;;;;;;;5090955;28;20460;-51
2021/01/20 06:20:45;;;;;;;3.63;3.20;;;;;;;;;;5090228;28;20464;-51
2021/01/20 06:23:12;;;;;;;3.90;3.40;;;;;;;;;;5091220;28;20539;-51
2021/01/20 06:25:40;;;;;;;4.63;3.23;;;;;;;;;;5090770;28;20484;-52
2021/01/20 06:28:11;;;;;;;3.60;3.30;;;;;;;;;;5091239;28;20443;-52
2021/01/20 06:30:39;;;;;;;4.60;3.23;;;;;;;;;;5090934;28;20406;-51
2021/01/20 06:33:06;;;;;;;3.60;3.30;;;;;;;;;;5091077;28;20430;-51
2021/01/20 06:35:42;;;;;;;4.87;3.37;;;;;;;;;;5090794;28;20402;-51
2021/01/20 06:38:27;;;;;;;3.57;3.27;;;;;;;;;;5090892;28;20468;-52
2021/01/20 06:40:54;;;;;;;4.30;3.40;;;;;;;;;;5091009;28;20402;-51
2021/01/20 06:43:39;;;;;;;3.40;2.77;;;;;;;;;;5091000;28;20890;-52
2021/01/20 06:46:11;;;;;;;3.60;3.20;;;;;;;;;;5088589;28;20453;-52
2021/01/20 06:48:52;;;;;;;3.50;2.83;;;;;;;;;;5089990;28;20497;-52
2021/01/20 06:51:18;;;;;;;2.80;2.53;;;;;;;;;;5090907;28;20405;-52
2021/01/20 06:54:10;;;;;;;3.20;2.67;;;;;;;;;;5091143;28;20389;-51
2021/01/20 06:56:49;;;;;;;2.97;2.77;;;;;;;;;;5090512;28;20964;-52
2021/01/20 06:59:30;;;;;;;10.03;2.70;;;;;;;;;;5091143;28;20509;-52
2021/01/20 07:02:02;;;;;;;4.27;2.47;;;;;;;;;;5090764;28;20467;-52
2021/01/20 07:04:37;;;;;;;3.77;3.37;;;;;;;;;;5090163;28;20538;-51
2021/01/20 07:07:07;;;;;;;3.40;2.60;;;;;;;;;;5089902;28;20414;-51
2021/01/20 07:09:51;;;;;;;2.90;2.70;;;;;;;;;;5071957;28;20426;-52
2021/01/20 07:12:18;;;;;;;3.67;2.90;;;;;;;;;;5089954;28;20410;-51
2021/01/20 07:14:44;;;;;;;3.80;2.57;;;;;;;;;;5092761;28;20406;-51
2021/01/20 07:17:11;;;;;;;2.30;2.20;;;;;;;;;;5091610;28;20541;-51
2021/01/20 07:19:38;;;;;;;2.83;2.63;;;;;;;;;;5093764;28;20840;-51
2021/01/20 07:22:05;;;;;;;3.40;3.10;;;;;;;;;;5094110;28;20488;-51
2021/01/20 07:24:32;;;;;;;2.60;2.40;;;;;;;;;;5093620;28;20408;-52
2021/01/20 07:27:07;;;;;;;5.67;2.60;;;;;;;;;;5093692;28;20402;-52
2021/01/20 07:29:33;;;;;;;2.73;2.53;;;;;;;;;;5093596;28;20430;-51
2021/01/20 07:32:00;;;;;;;6.40;2.93;;;;;;;;;;5093808;28;20397;-51
2021/01/20 07:34:36;;;;;;;3.10;2.87;;;;;;;;;;5093549;28;20442;-52
2021/01/20 07:37:12;;;;;;;2.37;2.20;;;;;;;;;;5093452;28;20445;-53
2021/01/20 07:39:38;;;;;;;3.10;2.80;;;;;;;;;;5093532;28;20424;-52
2021/01/20 07:42:07;;;;;;;3.33;2.73;;;;;;;;;;5093410;28;20402;-51
2021/01/20 07:44:34;;;;;;;3.83;2.73;;;;;;;;;;5093449;28;20393;-51
2021/01/20 07:47:01;;;;;;;4.53;4.03;;;;;;;;;;5091859;28;20433;-51
2021/01/20 07:49:27;;;;;;;2.60;2.40;;;;;;;;;;5093223;28;20858;-51
2021/01/20 07:52:19;;;;;;;3.10;2.67;;;;;;;;;;5093263;28;20410;-51
2021/01/20 07:54:45;;;;;;;3.03;2.83;;;;;;;;;;5089663;28;20418;-51
2021/01/20 07:57:16;;;;;;;2.80;2.60;;;;;;;;;;5092687;28;20565;-52
2021/01/20 07:59:42;;;;;;;4.33;2.50;;;;;;;;;;5093349;28;20456;-52
2021/01/20 08:02:11;;;;;;;3.03;2.73;;;;;;;;;;5093629;28;20404;-51
2021/01/20 08:04:38;;;;;;;4.10;3.27;;;;;;;;;;5093723;28;20402;-51
2021/01/20 08:07:04;;;;;;;2.93;2.73;;;;;;;;;;5093446;28;20406;-51
2021/01/20 08:09:40;;;;;;;3.20;2.90;;;;;;;;;;5093313;28;20458;-52
2021/01/20 08:12:08;;;;;;;3.07;2.80;;;;;;;;;;5093730;28;20411;-52
2021/01/20 08:14:35;;;;;;;4.20;2.90;;;;;;;;;;5093515;28;20741;-51
2021/01/20 08:17:02;;;;;;;3.20;2.90;;;;;;;;;;5091971;28;20461;-51
2021/01/20 08:19:28;;;;;;;4.63;2.97;;;;;;;;;;5093218;28;20467;-51
2021/01/20 08:21:54;;;;;;;3.03;2.83;;;;;;;;;;5093349;28;20429;-51
2021/01/20 08:24:21;;;;;;;3.70;2.50;;;;;;;;;;5092566;28;20414;-51
2021/01/20 08:26:53;;;;;;;2.50;2.30;;;;;;;;;;5093133;28;20438;-51
2021/01/20 08:29:21;;;;;;;3.87;2.50;;;;;;;;;;5093141;28;20434;-51
2021/01/20 08:31:47;;;;;;;3.00;2.80;;;;;;;;;;5093370;28;20432;-51
2021/01/20 08:34:17;;;;;;;2.93;2.60;;;;;;;;;;5093415;28;20824;-52
2021/01/20 08:37:04;;;;;;;3.47;3.00;;;;;;;;;;5092661;28;20452;-52
2021/01/20 08:39:31;;;;;;;2.80;2.50;;;;;;;;;;5093223;28;20420;-51
2021/01/20 08:42:16;;;;;;;4.00;2.87;;;;;;;;;;5093007;28;20477;-52
2021/01/20 08:45:01;;;;;;;4.20;2.70;;;;;;;;;;5091176;28;20422;-51
2021/01/20 08:47:27;;;;;;;3.30;3.00;;;;;;;;;;5092369;28;20426;-51
2021/01/20 08:49:53;;;;;;;4.73;3.20;;;;;;;;;;5092947;28;20417;-51
2021/01/20 08:52:23;;;;;;;5.20;4.17;;;;;;;;;;5092679;28;20398;-51
2021/01/20 08:54:49;;;;;;;2.50;2.30;;;;;;;;;;5092661;28;20409;-51
2021/01/20 08:57:19;;;;;;;3.17;2.83;;;;;;;;;;5092231;28;20976;-51
2021/01/20 08:59:51;;;;;;;3.40;3.10;;;;;;;;;;5092697;28;20505;-51
2021/01/20 09:02:20;;;;;;;3.03;2.73;;;;;;;;;;5092534;28;20402;-51
2021/01/20 09:04:47;;;;;;;3.93;2.80;;;;;;;;;;5092656;28;20395;-52
2021/01/20 09:07:13;;;;;;;4.93;3.07;;;;;;;;;;5091912;28;20407;-51
2021/01/20 09:09:39;;;;;;;5.03;2.93;;;;;;;;;;5092173;28;20428;-51
2021/01/20 09:12:05;;;;;;;3.77;2.80;;;;;;;;;;5092219;28;20459;-52
2021/01/20 09:14:32;;;;;;;2.47;2.27;;;;;;;;;;5091382;28;20434;-51
2021/01/20 09:17:00;;;;;;;3.40;2.70;;;;;;;;;;5092073;28;21013;-53
2021/01/20 09:19:26;;;;;;;3.27;2.97;;;;;;;;;;5092007;28;20942;-51
2021/01/20 09:21:52;;;;;;;3.53;2.83;;;;;;;;;;5092219;28;20440;-52
2021/01/20 09:24:18;;;;;;;4.77;2.90;;;;;;;;;;5091924;28;20457;-52
2021/01/20 09:26:44;;;;;;;2.80;2.60;;;;;;;;;;5092202;28;20418;-52
2021/01/20 09:29:10;;;;;;;2.83;2.63;;;;;;;;;;5091735;28;20476;-52
2021/01/20 09:31:36;;;;;;;7.37;3.10;;;;;;;;;;5092143;28;20415;-52
2021/01/20 09:34:02;;;;;;;3.47;2.97;;;;;;;;;;5092038;28;20414;-51
2021/01/20 09:36:28;;;;;;;3.80;3.50;;;;;;;;;;5090486;28;20418;-51
2021/01/20 09:38:58;;;;;;;3.73;3.40;;;;;;;;;;5091801;28;20423;-52
2021/01/20 09:41:24;;;;;;;2.83;2.63;;;;;;;;;;5091539;28;20404;-52
2021/01/20 09:43:51;;;;;;;3.43;3.13;;;;;;;;;;5090608;28;20492;-52
2021/01/20 09:46:17;;;;;;;3.67;3.33;;;;;;;;;;5091422;28;20752;-51
2021/01/20 09:48:43;;;;;;;3.40;3.10;;;;;;;;;;5091450;28;20439;-53
2021/01/20 09:51:09;;;;;;;3.10;2.90;;;;;;;;;;5091435;28;20483;-52
2021/01/20 09:53:35;;;;;;;3.37;3.00;;;;;;;;;;5091569;28;20411;-52
2021/01/20 09:56:01;;;;;;;2.93;2.73;;;;;;;;;;5092103;28;20487;-53
2021/01/20 09:58:27;;;;;;;3.47;2.63;;;;;;;;;;5091398;28;20545;-51
2021/01/20 10:00:53;;;;;;;3.27;3.00;;;;;;;;;;5092514;28;20422;-50
2021/01/20 10:03:19;;;;;;;3.00;2.80;;;;;;;;;;5091213;28;20403;-53
2021/01/20 10:05:48;;;;;;;4.03;3.03;;;;;;;;;;5091179;28;20508;-50
2021/01/20 10:08:14;;;;;;;3.00;2.80;;;;;;;;;;5091172;28;20451;-53
2021/01/20 10:10:40;;;;;;;2.90;2.70;;;;;;;;;;5091321;28;20959;-54
2021/01/20 10:13:05;;;;;;;3.73;2.77;;;;;;;;;;5091126;28;20399;-53
2021/01/20 10:15:32;;;;;;;4.03;3.50;;;;;;;;;;5088082;28;20813;-51
2021/01/20 10:17:58;;;;;;;3.40;3.10;;;;;;;;;;5091191;28;20461;-51
2021/01/20 10:20:24;;;;;;;3.30;3.00;;;;;;;;;;5091081;28;20479;-53
2021/01/20 10:22:50;;;;;;;3.33;3.03;;;;;;;;;;5091080;28;20481;-53
2021/01/20 10:25:16;;;;;;;3.90;3.30;;;;;;;;;;5090664;28;20411;-53
2021/01/20 10:27:42;;;;;;;5.50;3.43;;;;;;;;;;5091105;28;20490;-53
2021/01/20 10:30:08;;;;;;;2.90;2.70;;;;;;;;;;5090895;28;21028;-50
2021/01/20 10:32:35;;;;;;;3.20;3.00;;;;;;;;;;5093102;28;20429;-51
2021/01/20 10:35:01;;;;;;;3.17;2.93;;;;;;;;;;5073818;28;20427;-53
2021/01/20 10:37:27;;;;;;;3.03;2.73;;;;;;;;;;5090620;28;20477;-53
2021/01/20 10:39:53;;;;;;;3.73;3.23;;;;;;;;;;5091064;28;20402;-53
2021/01/20 10:42:19;;;;;;;2.90;2.70;;;;;;;;;;5091220;28;20400;-52
2021/01/20 10:44:47;;;;;;;3.87;2.70;;;;;;;;;;5091214;28;20952;-52
2021/01/20 10:47:13;;;;;;;3.30;3.00;;;;;;;;;;5090594;28;20391;-54
2021/01/20 10:49:39;;;;;;;3.13;2.87;;;;;;;;;;5091152;28;20451;-53
2021/01/20 10:52:05;;;;;;;3.80;2.77;;;;;;;;;;5091042;28;20399;-54
2021/01/20 10:54:31;;;;;;;3.20;2.70;;;;;;;;;;5090889;28;20402;-52
2021/01/20 10:56:58;;;;;;;3.17;2.87;;;;;;;;;;5068399;28;20452;-52
2021/01/20 10:59:24;;;;;;;4.53;3.00;;;;;;;;;;5070309;28;20399;-51
2021/01/20 11:01:51;;;;;;;6.50;3.07;;;;;;;;;;5069729;28;20772;-50
2021/01/20 11:04:17;;;;;;;3.70;3.40;;;;;;;;;;5069872;28;20396;-50
2021/01/20 11:06:43;;;;;;;4.27;2.60;;;;;;;;;;5069786;28;20408;-50
2021/01/20 11:09:09;;;;;;;2.63;2.43;;;;;;;;;;5069663;28;20481;-53
2021/01/20 11:11:35;;;;;;;3.10;2.80;;;;;;;;;;5068405;28;20415;-47
2021/01/20 11:14:01;;;;;;;3.10;2.90;;;;;;;;;;5069609;28;20419;-50
2021/01/20 11:16:27;;;;;;;3.20;2.90;;;;;;;;;;5082432;28;20431;-50
2021/01/20 11:18:53;;;;;;;3.80;2.40;;;;;;;;;;5090076;28;20942;-47
2021/01/20 11:21:19;;;;;;;5.63;3.10;;;;;;;;;;5090341;28;20428;-48
2021/01/20 11:23:45;;;;;;;5.90;4.27;;;;;;;;;;5090492;28;20453;-48
2021/01/20 11:26:12;;;;;;;3.47;2.97;;;;;;;;;;5090011;28;20378;-51
2021/01/20 11:28:38;;;;;;;3.00;2.70;;;;;;;;;;5090422;28;20419;-48
2021/01/20 11:31:04;;;;;;;6.30;3.27;;;;;;;;;;5090367;28;20378;-48
2021/01/20 11:33:30;;;;;;;2.80;2.60;;;;;;;;;;5090385;28;20399;-48
2021/01/20 11:35:56;;;;;;;3.83;2.80;;;;;;;;;;5089896;28;21134;-48
2021/01/20 11:38:22;;;;;;;3.23;2.67;;;;;;;;;;5090224;28;20490;-48
2021/01/20 11:40:48;;;;;;;2.97;2.67;;;;;;;;;;5090186;28;20400;-48
2021/01/20 11:43:14;;;;;;;2.83;2.63;;;;;;;;;;5090367;28;20445;-48
2021/01/20 11:45:40;;;;;;;3.27;2.80;;;;;;;;;;5088838;28;20433;-48
2021/01/20 11:48:07;;;;;;;3.13;2.83;;;;;;;;;;5071839;28;20425;-48
2021/01/20 11:50:33;;;;;;;2.80;2.60;;;;;;;;;;5090269;28;20441;-47
2021/01/20 11:52:59;;;;;;;5.63;2.80;;;;;;;;;;5090060;28;20445;-50
2021/01/20 11:55:25;;;;;;;3.23;2.87;;;;;;;;;;5090158;28;20452;-48
2021/01/20 11:57:51;;;;;;;3.23;3.03;;;;;;;;;;5089995;28;20875;-48
2021/01/20 12:00:18;;;;;;;2.63;2.43;;;;;;;;;;5092470;28;20439;-47
2021/01/20 12:02:44;;;;;;;3.50;3.20;;;;;;;;;;5093591;28;20395;-49
2021/01/20 12:05:12;;;;;;;2.73;2.53;;;;;;;;;;5093710;28;20396;-50
2021/01/20 12:07:38;;;;;;;7.47;3.23;;;;;;;;;;5093373;28;20400;-48
2021/01/20 12:10:05;;;;;;;3.10;2.80;;;;;;;;;;5093712;28;20434;-51
2021/01/20 12:12:31;;;;;;;4.27;3.07;;;;;;;;;;5093503;28;20479;-48
2021/01/20 12:14:57;;;;;;;3.97;2.80;;;;;;;;;;5093663;28;20398;-48
2021/01/20 12:17:23;;;;;;;3.27;3.00;;;;;;;;;;5090808;28;20457;-48
2021/01/20 12:19:49;;;;;;;4.93;3.30;;;;;;;;;;5074147;28;20423;-48
2021/01/20 12:22:15;;;;;;;3.57;3.27;;;;;;;;;;5073217;28;20876;-48
2021/01/20 12:24:41;;;;;;;3.37;3.10;;;;;;;;;;5073099;28;20395;-47
2021/01/20 12:27:07;;;;;;;3.47;2.93;;;;;;;;;;5072849;28;20409;-50
2021/01/20 12:29:33;;;;;;;4.47;2.93;;;;;;;;;;5072716;28;20427;-51
2021/01/20 12:31:59;;;;;;;5.03;3.13;;;;;;;;;;5072896;28;20488;-52
2021/01/20 12:34:25;;;;;;;3.70;3.40;;;;;;;;;;5072775;28;20930;-49
2021/01/20 12:36:51;;;;;;;3.87;3.23;;;;;;;;;;5072442;28;20506;-51
2021/01/20 12:39:17;;;;;;;3.70;3.40;;;;;;;;;;5072687;28;20424;-50
2021/01/20 12:41:43;;;;;;;3.50;2.97;;;;;;;;;;5072868;28;20407;-47
2021/01/20 12:44:09;;;;;;;4.40;3.20;;;;;;;;;;5078895;28;20436;-47
2021/01/20 12:46:35;;;;;;;3.50;3.17;;;;;;;;;;5092496;28;20398;-50
2021/01/20 12:49:01;;;;;;;3.47;3.17;;;;;;;;;;5092743;28;20471;-50
2021/01/20 12:51:27;;;;;;;3.30;3.00;;;;;;;;;;5092707;28;20409;-47
2021/01/20 12:53:53;;;;;;;3.20;2.73;;;;;;;;;;5092807;28;20922;-47
2021/01/20 12:56:19;;;;;;;5.20;2.83;;;;;;;;;;5091147;28;20822;-48
2021/01/20 12:58:45;;;;;;;3.83;2.90;;;;;;;;;;5091748;28;20466;-47
2021/01/20 13:01:11;;;;;;;3.10;2.80;;;;;;;;;;5092368;28;20764;-47
2021/01/20 13:03:37;;;;;;;2.97;2.77;;;;;;;;;;5092631;28;20431;-47
2021/01/20 13:06:05;;;;;;;4.63;2.80;;;;;;;;;;5074081;28;20404;-47
2021/01/20 13:08:31;;;;;;;3.13;2.87;;;;;;;;;;5092273;28;20441;-47
2021/01/20 13:10:57;;;;;;;3.60;3.30;;;;;;;;;;5092305;28;20412;-47
2021/01/20 13:13:24;;;;;;;3.67;2.87;;;;;;;;;;5074007;28;20449;-47
2021/01/20 13:15:51;;;;;;;3.27;3.07;;;;;;;;;;5090165;28;20423;-47
2021/01/20 13:18:18;;;;;;;3.77;3.43;;;;;;;;;;5091986;28;20463;-47
2021/01/20 13:20:44;;;;;;;3.50;3.20;;;;;;;;;;5092249;28;20411;-47
2021/01/20 13:23:10;;;;;;;3.60;3.20;;;;;;;;;;5092066;28;20395;-48
2021/01/20 13:25:36;;;;;;;3.93;2.97;;;;;;;;;;5091882;28;20899;-52
2021/01/20 13:28:02;;;;;;;3.20;2.90;;;;;;;;;;5092075;28;20417;-47
2021/01/20 13:30:27;;;;;;;6.60;2.93;;;;;;;;;;5091884;28;20400;-47
2021/01/20 13:32:53;;;;;;;5.63;2.67;;;;;;;;;;5090860;28;20444;-47
2021/01/20 13:35:20;;;;;;;5.40;3.10;;;;;;;;;;5091619;28;20483;-47
2021/01/20 13:37:46;;;;;;;5.47;3.70;;;;;;;;;;5091780;28;20481;-47
2021/01/20 13:40:12;;;;;;;4.17;2.90;;;;;;;;;;5091767;28;20403;-47
2021/01/20 13:42:38;;;;;;;3.37;3.07;;;;;;;;;;5091886;28;20391;-47
2021/01/20 13:45:04;;;;;;;4.00;3.20;;;;;;;;;;5090262;28;20519;-47
2021/01/20 13:47:30;;;;;;;3.30;3.00;;;;;;;;;;5091357;28;20456;-50
2021/01/20 13:49:56;;;;;;;5.47;3.10;;;;;;;;;;5091368;28;20415;-47
2021/01/20 13:52:22;;;;;;;3.93;3.57;;;;;;;;;;5091332;28;20875;-50
2021/01/20 13:54:48;;;;;;;4.90;3.17;;;;;;;;;;5091588;28;20468;-47
2021/01/20 13:57:14;;;;;;;3.17;2.90;;;;;;;;;;5090016;28;20447;-47
2021/01/20 13:59:40;;;;;;;3.03;2.73;;;;;;;;;;5091298;28;20914;-47
2021/01/20 14:02:07;;;;;;;5.50;3.70;;;;;;;;;;5090165;28;20400;-47
2021/01/20 14:04:33;;;;;;;3.13;2.80;;;;;;;;;;5091516;28;20414;-47
2021/01/20 14:06:59;;;;;;;6.00;2.93;;;;;;;;;;5090886;28;20398;-50
2021/01/20 14:09:25;;;;;;;3.47;2.70;;;;;;;;;;5091230;28;20473;-50
2021/01/20 14:11:51;;;;;;;4.03;2.77;;;;;;;;;;5091429;28;20803;-51
2021/01/20 14:14:17;;;;;;;3.87;2.80;;;;;;;;;;5091035;28;20490;-51
2021/01/20 14:16:43;;;;;;;5.03;3.23;;;;;;;;;;5089916;28;20721;-47
2021/01/20 14:19:09;;;;;;;7.70;3.40;;;;;;;;;;5091070;28;20430;-47
2021/01/20 14:21:35;;;;;;;3.70;3.30;;;;;;;;;;5091088;28;20400;-47
2021/01/20 14:24:01;;;;;;;3.97;3.23;;;;;;;;;;5090383;28;20879;-47
2021/01/20 14:26:27;;;;;;;5.10;3.30;;;;;;;;;;5090693;28;20400;-47
2021/01/20 14:28:53;;;;;;;4.17;3.27;;;;;;;;;;5090634;28;20423;-47
2021/01/20 14:31:21;;;;;;;3.57;3.27;;;;;;;;;;5090940;28;20404;-47
2021/01/20 14:33:47;;;;;;;2.90;2.70;;;;;;;;;;5090811;28;20429;-47
2021/01/20 14:36:14;;;;;;;4.27;3.87;;;;;;;;;;5090513;28;20424;-47
2021/01/20 14:38:41;;;;;;;3.70;3.03;;;;;;;;;;5090747;28;20814;-48
2021/01/20 14:41:07;;;;;;;9.30;3.40;;;;;;;;;;5090574;28;20400;-48
2021/01/20 14:43:33;;;;;;;7.53;3.37;;;;;;;;;;5090948;28;20396;-48
2021/01/20 14:45:59;;;;;;;5.33;3.57;;;;;;;;;;5089370;28;20430;-49
2021/01/20 14:48:25;;;;;;;4.17;3.10;;;;;;;;;;5090488;28;20450;-47